• Join FlightAware (Why Join?)
  • Login
  • US Flag 
12:12AM EST


 

Airport Tracker/Info


-or-


 

Live Flight TrackerFlight Track Log ✈ JBU1781 ✈ 13-May-2013 ✈ KMCO - MYNN / NAS

Flight Track Log - Related Links

Times and Time Zones

All times are in EDT time to prevent confusion due to time zone crossing. See the JBU1781 flight status page for this flight to view local times or setup timezone preferences in your user account.

Time Position Orientation Groundspeed Altitude Reporting Facility
EDT Latitude Longitude Course Direction KTS MPH feet Rate Location/Type
02:07PM 28.4333 -81.3000 139° Southeast 151 174 900  Level Orlando TRACON
02:08PM 28.4667 -81.2500 53° Northeast 215 247 2,200 1,860 Climbing Orlando TRACON
02:09PM 28.5000 -81.1833 60° Northeast 270 311 4,500 2,100 Climbing Orlando TRACON
02:11PM 28.1356 -80.9617 139° Southeast  Level Estimated
02:11PM 28.4833 -81.0833 101° East 303 349 6,700  Level Orlando TRACON
02:12PM 28.0620 -80.8752 139° Southeast  Level Estimated
02:12PM 28.4089 -80.9633 125° Southeast 330 380 10,900  Level Miami Center
02:13PM 27.9883 -80.7888 139° Southeast  Level Estimated
02:13PM 28.3575 -80.8625 120° Southeast 348 400 13,700  Level Miami Center
02:14PM 28.3075 -80.7806 125° Southeast 355 409 16,000 2,100 Climbing Miami Center
02:15PM 28.2350 -80.6883 132° Southeast 379 436 17,900 2,100 Climbing Miami Center
02:16PM 28.1522 -80.5797 131° Southeast 398 458 20,300 2,400 Climbing Miami Center
02:17PM 28.0797 -80.4831 130° Southeast 398 458 22,700 1,320 Climbing Miami Center
02:18PM 28.0108 -80.3917 130° Southeast 403 464 23,000 120 Climbing Miami Center
02:19PM 27.9361 -80.2953 131° Southeast 408 470 23,000  Level Miami Center
02:20PM 27.8592 -80.1942 131° Southeast 413 475 23,000  Level Miami Center
02:21PM 27.7778 -80.1003 134° Southeast 420 483 23,000  Level Miami Center
02:22PM 27.7028 -80.0019 131° Southeast 420 483 23,000  Level Miami Center
02:23PM 27.6253 -79.9061 132° Southeast 420 483 23,000  Level Miami Center
02:24PM 27.5544 -79.8058 129° Southeast 414 476 23,000  Level Miami Center
02:25PM 27.4708 -79.7008 132° Southeast 414 476 23,000  Level Miami Center
02:26PM 27.3956 -79.6053 132° Southeast 409 471 23,000  Level Miami Center
02:27PM 27.3200 -79.5100 132° Southeast 409 471 23,000  Level Miami Center
02:28PM 27.2525 -79.4219 131° Southeast 404 465 23,000  Level Miami Center
02:29PM 27.1769 -79.3294 133° Southeast 399 459 23,000  Level Miami Center
02:30PM 27.0972 -79.2250 131° Southeast 398 458 23,000  Level Miami Center
02:31PM 27.0194 -79.1300 133° Southeast 398 458 23,000  Level Miami Center
02:32PM 26.9456 -79.0356 131° Southeast 398 458 23,000  Level Miami Center
02:33PM 26.8678 -78.9386 132° Southeast 403 464 23,000  Level Miami Center
02:34PM 26.7939 -78.8464 132° Southeast 403 464 23,000  Level Miami Center
02:35PM 26.7178 -78.7522 132° Southeast 403 464 23,000  Level Miami Center
02:36PM 26.6394 -78.6625 134° Southeast 403 464 23,000  Level Miami Center
02:37PM 26.5675 -78.5639 129° Southeast 392 451 23,000  Level Miami Center
02:38PM 26.4975 -78.4864 135° Southeast 398 458 23,000  Level Miami Center
02:39PM 26.4211 -78.3947 133° Southeast 398 458 23,000  Level Miami Center
02:40PM 26.3469 -78.2986 131° Southeast 398 458 23,000  Level Miami Center
02:41PM 26.2725 -78.2050 132° Southeast 398 458 23,000  Level Miami Center
02:42PM 26.1961 -78.1092 132° Southeast 398 458 23,000  Level Miami Center
02:43PM 26.1194 -78.0206 134° Southeast 398 458 23,000  Level Miami Center
02:44PM 26.0450 -77.9272 132° Southeast 398 458 23,000 -1,020 Level Miami Center
02:45PM 25.9703 -77.8342 132° Southeast 398 458 21,000 -2,100 Descending Miami Center
02:46PM 25.8958 -77.7411 132° Southeast 393 452 18,800 -2,160 Descending Miami Center
02:47PM 25.8231 -77.6575 134° Southeast 393 452 16,700 -1,740 Descending Miami Center
02:48PM 25.7336 -77.6156 157° South 362 417 15,300 -1,800 Descending Miami Center
02:49PM 25.6375 -77.6147 180° South 344 396 13,100 -2,280 Descending Miami Center